createdAt,value
2019-01-06T00:01:27.605Z,33.50
2019-01-06T00:04:33.775Z,33.77
2019-01-06T00:07:42.196Z,33.63
2019-01-06T00:10:48.307Z,32.73
2019-01-06T00:13:45.056Z,32.90
2019-01-06T00:16:51.081Z,33.03
2019-01-06T00:19:54.517Z,32.17
2019-01-06T00:23:00.003Z,32.77
2019-01-06T00:26:05.250Z,33.00
2019-01-06T00:29:10.599Z,33.27
2019-01-06T00:32:16.290Z,33.57
2019-01-06T00:35:22.244Z,33.17
2019-01-06T00:38:28.320Z,33.23
2019-01-06T00:41:29.555Z,32.40
2019-01-06T00:44:38.208Z,31.70
2019-01-06T00:47:43.876Z,32.07
2019-01-06T00:50:49.546Z,33.00
2019-01-06T00:53:55.416Z,32.63
2019-01-06T00:57:07.388Z,31.57
2019-01-06T01:00:15.871Z,31.43
2019-01-06T01:03:21.757Z,31.97
2019-01-06T01:06:29.819Z,32.03
2019-01-06T01:09:36.173Z,31.60
2019-01-06T01:12:43.995Z,32.13
2019-01-06T01:15:45.800Z,31.73
2019-01-06T01:18:52.085Z,31.77
2019-01-06T01:21:57.591Z,32.13
2019-01-06T01:25:03.325Z,32.20
2019-01-06T01:28:09.411Z,31.67
2019-01-06T01:31:14.999Z,32.07
2019-01-06T01:34:17.967Z,32.03
2019-01-06T01:37:17.718Z,32.33
2019-01-06T01:40:19.475Z,30.53
2019-01-06T01:43:24.960Z,31.30
2019-01-06T01:46:31.742Z,31.80
2019-01-06T01:49:25.554Z,31.93
2019-01-06T01:52:38.572Z,32.53
2019-01-06T01:55:44.426Z,31.27
2019-01-06T01:58:45.184Z,32.40
2019-01-06T02:01:39.064Z,32.20
2019-01-06T02:04:52.055Z,32.00
2019-01-06T02:07:56.535Z,33.00
2019-01-06T02:11:01.871Z,32.70
2019-01-06T02:14:07.628Z,33.53
2019-01-06T02:17:13.171Z,32.67
2019-01-06T02:20:17.495Z,33.23
2019-01-06T02:23:23.423Z,32.27
2019-01-06T02:26:28.424Z,32.20
2019-01-06T02:29:34.243Z,32.23
2019-01-06T02:32:40.235Z,32.87
2019-01-06T02:35:46.055Z,33.13
2019-01-06T02:38:51.380Z,32.77
2019-01-06T02:41:58.631Z,32.27
2019-01-06T02:45:04.647Z,32.73
2019-01-06T02:48:10.691Z,32.73
2019-01-06T02:51:16.392Z,33.20
2019-01-06T02:54:22.311Z,32.43
2019-01-06T02:57:27.824Z,33.07
2019-01-06T03:00:36.776Z,33.37
2019-01-06T03:03:42.700Z,34.17
2019-01-06T03:06:48.130Z,32.60
2019-01-06T03:09:54.224Z,32.80
2019-01-06T03:12:54.553Z,33.77
2019-01-06T03:15:55.227Z,33.43
2019-01-06T03:19:00.915Z,33.80
2019-01-06T03:22:22.308Z,34.10
2019-01-06T03:25:28.301Z,33.57
2019-01-06T03:28:34.316Z,32.83
2019-01-06T03:31:40.134Z,33.33
2019-01-06T03:34:52.232Z,32.93
2019-01-06T03:37:57.773Z,33.27
2019-01-06T03:41:03.779Z,32.77
2019-01-06T03:44:15.714Z,33.70
2019-01-06T03:47:21.560Z,33.17
2019-01-06T03:50:27.700Z,33.47
2019-01-06T03:53:21.504Z,34.03
2019-01-06T03:56:34.511Z,33.77
2019-01-06T03:59:40.011Z,34.07
2019-01-06T04:02:46.154Z,33.90
2019-01-06T04:05:40.634Z,33.43
2019-01-06T04:08:46.716Z,33.57
2019-01-06T04:11:55.963Z,33.17
2019-01-06T04:15:01.767Z,33.33
2019-01-06T04:18:07.603Z,32.53
2019-01-06T04:21:04.995Z,33.43
2019-01-06T04:24:06.301Z,34.67
2019-01-06T04:27:08.942Z,34.77
2019-01-06T04:30:15.125Z,33.70
2019-01-06T04:33:23.502Z,34.30
2019-01-06T04:36:28.883Z,33.63
2019-01-06T04:39:34.818Z,34.83
2019-01-06T04:42:34.803Z,33.70
2019-01-06T04:45:40.456Z,34.77
2019-01-06T04:48:46.684Z,33.43
2019-01-06T04:51:52.633Z,33.10
2019-01-06T04:54:58.995Z,33.67
2019-01-06T04:58:03.095Z,33.80
2019-01-06T05:01:03.852Z,34.53
2019-01-06T05:04:09.923Z,34.10
2019-01-06T05:07:15.684Z,33.10
2019-01-06T05:10:21.695Z,32.23
2019-01-06T05:13:18.152Z,33.87
2019-01-06T05:16:22.107Z,32.77
2019-01-06T05:19:30.979Z,33.73
2019-01-06T05:22:31.946Z,32.83
2019-01-06T05:25:38.116Z,32.93
2019-01-06T05:28:44.103Z,33.57
2019-01-06T05:31:49.518Z,33.07
2019-01-06T05:34:55.051Z,33.23
2019-01-06T05:38:00.706Z,33.80
2019-01-06T05:41:06.308Z,33.00
2019-01-06T05:44:04.118Z,32.63
2019-01-06T05:47:09.420Z,32.00
2019-01-06T05:50:20.578Z,33.80
2019-01-06T05:53:26.700Z,32.23
2019-01-06T05:56:32.624Z,32.20
2019-01-06T05:59:38.110Z,32.77
2019-01-06T06:02:39.491Z,32.93
2019-01-06T06:05:45.259Z,32.60
2019-01-06T06:08:50.947Z,32.03
2019-01-06T06:11:56.930Z,31.50
2019-01-06T06:15:02.787Z,32.13
2019-01-06T06:18:10.154Z,31.37
2019-01-06T06:20:56.020Z,32.87
2019-01-06T06:24:06.146Z,32.57
2019-01-06T06:27:09.101Z,32.87
2019-01-06T06:30:15.111Z,32.13
2019-01-06T06:33:22.396Z,32.50
2019-01-06T06:36:31.211Z,32.00
2019-01-06T06:39:35.034Z,32.47
2019-01-06T06:42:41.212Z,31.90
2019-01-06T06:45:49.630Z,32.50
2019-01-06T06:48:47.886Z,31.30
2019-01-06T06:51:53.407Z,31.43
2019-01-06T06:54:59.202Z,31.03
2019-01-06T06:58:01.143Z,36.53
2019-01-06T07:01:06.673Z,32.33
2019-01-06T07:04:12.996Z,31.67
2019-01-06T07:07:24.522Z,31.50
2019-01-06T07:10:29.807Z,31.70
2019-01-06T07:13:23.636Z,31.53
2019-01-06T07:16:55.847Z,31.83
2019-01-06T07:20:07.719Z,31.17
2019-01-06T07:23:19.172Z,31.40
2019-01-06T07:26:21.952Z,32.57
2019-01-06T07:29:27.991Z,36.83
2019-01-06T07:32:33.468Z,38.53
2019-01-06T07:35:39.306Z,51.53
2019-01-06T07:38:45.471Z,48.40
2019-01-06T07:41:51.560Z,54.10
2019-01-06T07:44:57.632Z,34.03
2019-01-06T07:48:03.739Z,37.30
2019-01-06T07:51:09.146Z,36.37
2019-01-06T07:54:15.191Z,32.90
2019-01-06T07:57:20.907Z,33.00
2019-01-06T08:00:26.907Z,39.17
2019-01-06T08:03:35.725Z,32.83
2019-01-06T08:06:41.727Z,31.90
2019-01-06T08:09:47.888Z,32.60
2019-01-06T08:12:53.747Z,32.17
2019-01-06T08:15:59.448Z,31.33
2019-01-06T08:19:05.582Z,30.70
2019-01-06T08:22:11.117Z,30.83
2019-01-06T08:25:19.787Z,31.07
2019-01-06T08:28:25.731Z,32.73
2019-01-06T08:31:31.892Z,33.40
2019-01-06T08:34:37.751Z,31.07
2019-01-06T08:37:43.612Z,30.20
2019-01-06T08:40:49.362Z,31.87
2019-01-06T08:43:58.254Z,30.90
2019-01-06T08:47:07.003Z,32.93
2019-01-06T08:50:12.806Z,29.07
2019-01-06T08:53:18.804Z,28.80
2019-01-06T08:56:25.599Z,29.53
2019-01-06T08:59:31.493Z,34.17
2019-01-06T09:02:37.528Z,35.80
2019-01-06T09:05:43.664Z,29.47
2019-01-06T09:08:49.346Z,41.43
2019-01-06T09:11:55.404Z,37.13
2019-01-06T09:15:01.295Z,36.50
2019-01-06T09:18:13.169Z,30.13
2019-01-06T09:21:18.825Z,29.73
2019-01-06T09:24:31.546Z,30.57
2019-01-06T09:27:25.608Z,28.17
2019-01-06T09:30:38.624Z,30.27
2019-01-06T09:33:44.792Z,29.27
2019-01-06T09:36:50.867Z,29.27
2019-01-06T09:39:57.821Z,31.60
2019-01-06T09:43:06.728Z,31.00
2019-01-06T09:46:12.423Z,30.00
2019-01-06T09:49:20.554Z,29.73
2019-01-06T09:52:26.332Z,29.73
2019-01-06T09:55:32.036Z,29.23
2019-01-06T09:58:37.935Z,29.53
2019-01-06T10:01:43.652Z,29.07
2019-01-06T10:04:55.203Z,29.00
2019-01-06T10:08:00.713Z,28.57
2019-01-06T10:11:06.976Z,28.67
2019-01-06T10:14:12.842Z,29.63
2019-01-06T10:17:18.929Z,28.23
2019-01-06T10:20:24.912Z,27.63
2019-01-06T10:23:30.987Z,28.20
2019-01-06T10:26:36.898Z,27.83
2019-01-06T10:29:42.968Z,27.83
2019-01-06T10:32:48.912Z,28.10
2019-01-06T10:35:53.515Z,27.17
2019-01-06T10:38:59.249Z,28.00
2019-01-06T10:42:05.367Z,27.30
2019-01-06T10:45:17.402Z,27.87
2019-01-06T10:48:23.568Z,27.60
2019-01-06T10:51:29.831Z,28.27
2019-01-06T10:54:35.948Z,28.07
2019-01-06T10:57:48.283Z,28.57
2019-01-06T11:00:54.619Z,29.10
2019-01-06T11:04:00.392Z,28.30
2019-01-06T11:07:05.900Z,29.93
2019-01-06T11:10:12.895Z,27.87
2019-01-06T11:13:24.518Z,28.20
2019-01-06T11:16:35.759Z,28.37
2019-01-06T11:19:41.816Z,29.67
2019-01-06T11:22:47.661Z,30.33
2019-01-06T11:25:53.212Z,29.73
2019-01-06T11:28:59.020Z,29.47
2019-01-06T11:32:03.372Z,28.97
2019-01-06T11:35:08.804Z,28.63
2019-01-06T11:38:14.642Z,30.83
2019-01-06T11:41:26.142Z,29.93
2019-01-06T11:44:32.385Z,30.47
2019-01-06T11:47:35.002Z,30.73
2019-01-06T11:50:41.244Z,31.63
2019-01-06T11:53:47.332Z,31.70
2019-01-06T11:56:53.489Z,30.70
2019-01-06T11:59:59.569Z,33.53
2019-01-06T12:02:53.388Z,33.50
2019-01-06T12:06:06.495Z,32.63
2019-01-06T12:09:12.437Z,34.23
2019-01-06T12:12:21.990Z,34.47
2019-01-06T12:15:27.636Z,33.10
2019-01-06T12:18:33.805Z,32.97
2019-01-06T12:21:39.267Z,33.27
2019-01-06T12:24:45.493Z,33.53
2019-01-06T12:27:51.283Z,32.23
2019-01-06T12:30:57.281Z,32.03
2019-01-06T12:34:06.340Z,31.70
2019-01-06T12:37:10.688Z,32.47
2019-01-06T12:40:16.081Z,31.57
2019-01-06T12:43:29.194Z,32.33
2019-01-06T12:46:34.620Z,32.40
2019-01-06T12:49:39.954Z,32.03
2019-01-06T12:52:33.911Z,32.37
2019-01-06T12:55:47.316Z,36.73
2019-01-06T12:58:53.433Z,36.63
2019-01-06T13:01:59.001Z,34.73
2019-01-06T13:05:05.197Z,30.20
2019-01-06T13:08:11.092Z,30.47
2019-01-06T13:11:19.571Z,31.73
2019-01-06T13:14:27.531Z,30.30
2019-01-06T13:17:33.640Z,28.20
2019-01-06T13:20:39.854Z,28.33
2019-01-06T13:23:46.171Z,27.70
2019-01-06T13:26:52.457Z,27.80
2019-01-06T13:29:58.285Z,28.17
2019-01-06T13:33:04.198Z,28.23
2019-01-06T13:36:09.719Z,26.80
2019-01-06T13:39:15.464Z,27.03
2019-01-06T13:42:21.904Z,26.80
2019-01-06T13:45:27.719Z,27.07
2019-01-06T13:48:33.197Z,27.83
2019-01-06T13:55:06.206Z,27.63
2019-01-06T13:58:12.209Z,28.57
2019-01-06T14:01:18.094Z,28.10
2019-01-06T14:04:21.757Z,27.60
2019-01-06T14:07:27.948Z,27.47
2019-01-06T14:10:27.746Z,28.77
2019-01-06T14:13:21.585Z,27.50
2019-01-06T14:16:34.710Z,27.93
2019-01-06T14:19:40.536Z,28.07
2019-01-06T14:22:45.855Z,27.97
2019-01-06T14:25:51.723Z,27.90
2019-01-06T14:28:57.854Z,27.57
2019-01-06T14:32:06.484Z,27.80
2019-01-06T14:35:07.852Z,27.40
2019-01-06T14:38:13.883Z,27.63
2019-01-06T14:41:13.398Z,28.20
2019-01-06T14:44:19.378Z,27.43
2019-01-06T14:47:24.996Z,28.03
2019-01-06T14:50:18.839Z,28.20
2019-01-06T14:53:31.856Z,28.77
2019-01-06T14:56:37.655Z,27.83
2019-01-06T14:59:43.758Z,29.37
2019-01-06T15:02:49.668Z,31.47
2019-01-06T15:05:55.210Z,38.80
2019-01-06T15:09:01.210Z,31.20
2019-01-06T15:12:03.434Z,30.07
2019-01-06T15:15:09.544Z,29.13
2019-01-06T15:18:15.548Z,27.47
2019-01-06T15:21:21.476Z,28.40
2019-01-06T15:24:29.795Z,28.53
2019-01-06T15:27:35.460Z,28.70
2019-01-06T15:30:41.075Z,28.57
2019-01-06T15:33:52.614Z,29.43
2019-01-06T15:36:58.315Z,29.23
2019-01-06T15:40:07.287Z,28.23
2019-01-06T15:43:12.653Z,27.47
2019-01-06T15:46:18.541Z,28.33
2019-01-06T15:49:24.368Z,28.73
2019-01-06T15:52:30.247Z,29.00
2019-01-06T15:55:36.372Z,28.40
2019-01-06T15:58:42.320Z,30.73
2019-01-06T16:01:48.059Z,29.63
2019-01-06T16:04:51.324Z,29.57
2019-01-06T16:07:59.944Z,29.00
2019-01-06T16:11:05.868Z,28.40
2019-01-06T16:14:09.239Z,28.60
2019-01-06T16:17:12.366Z,30.13
2019-01-06T16:20:18.013Z,30.17
2019-01-06T16:23:24.555Z,30.80
2019-01-06T16:26:30.673Z,29.47
2019-01-06T16:29:36.799Z,29.53
2019-01-06T16:32:43.024Z,29.63
2019-01-06T16:35:51.943Z,29.20
2019-01-06T16:42:34.534Z,28.03
2019-01-06T16:45:40.138Z,28.33
2019-01-06T16:48:47.362Z,29.27
2019-01-06T16:51:53.034Z,32.60
2019-01-06T16:54:58.887Z,31.90
2019-01-06T16:58:04.817Z,33.00
2019-01-06T17:01:07.236Z,28.83
2019-01-06T17:04:17.203Z,28.67
2019-01-06T17:07:23.303Z,28.43
2019-01-06T17:10:30.259Z,27.90
2019-01-06T17:13:34.150Z,27.93
2019-01-06T17:16:40.291Z,27.67
2019-01-06T17:19:46.342Z,31.17
2019-01-06T17:22:55.076Z,29.80
2019-01-06T17:26:00.792Z,28.60
2019-01-06T17:29:06.887Z,28.37
2019-01-06T17:32:15.599Z,28.20
2019-01-06T17:35:24.622Z,28.53
2019-01-06T17:38:30.421Z,27.97
2019-01-06T17:41:37.235Z,27.83
2019-01-06T17:44:43.122Z,28.83
2019-01-06T17:47:42.068Z,29.60
2019-01-06T17:50:48.288Z,30.67
2019-01-06T17:53:53.970Z,30.97
2019-01-06T17:57:00.479Z,32.93
2019-01-06T18:00:06.644Z,33.47
2019-01-06T18:03:12.876Z,32.97
2019-01-06T18:06:13.635Z,30.53
2019-01-06T18:09:19.688Z,30.93
2019-01-06T18:12:31.371Z,30.67
2019-01-06T18:15:40.354Z,29.87
2019-01-06T18:18:46.076Z,30.27
2019-01-06T18:21:51.719Z,30.17
2019-01-06T18:24:57.808Z,31.57
2019-01-06T18:28:06.051Z,43.37
2019-01-06T18:31:12.196Z,31.37
2019-01-06T18:34:14.998Z,30.73
2019-01-06T18:37:20.735Z,30.93
2019-01-06T18:40:26.668Z,30.70
2019-01-06T18:43:29.099Z,31.37
2019-01-06T18:46:34.519Z,33.10
2019-01-06T18:49:40.819Z,32.27
2019-01-06T18:52:46.940Z,32.27
2019-01-06T18:55:52.347Z,32.60
2019-01-06T18:58:51.948Z,32.20
2019-01-06T19:01:59.228Z,32.33
2019-01-06T19:04:58.347Z,31.50
2019-01-06T19:08:03.955Z,31.60
2019-01-06T19:11:09.834Z,32.17
2019-01-06T19:14:16.012Z,32.97
2019-01-06T19:17:23.290Z,32.47
2019-01-06T19:20:29.596Z,33.07
2019-01-06T19:23:35.740Z,33.03
2019-01-06T19:26:45.018Z,33.20
2019-01-06T19:29:51.060Z,34.37
2019-01-06T19:32:56.390Z,35.67
2019-01-06T19:36:02.412Z,34.80
2019-01-06T19:39:08.438Z,40.93
2019-01-06T19:42:14.819Z,34.63
2019-01-06T19:45:23.511Z,34.97
2019-01-06T19:48:29.087Z,35.00
2019-01-06T19:51:34.015Z,34.43
2019-01-06T19:54:40.049Z,34.20
2019-01-06T19:57:47.204Z,36.13
2019-01-06T20:01:06.979Z,35.50
2019-01-06T20:04:12.601Z,35.30
2019-01-06T20:07:17.944Z,35.30
2019-01-06T20:10:24.334Z,35.50
2019-01-06T20:13:30.372Z,35.17
2019-01-06T20:16:36.260Z,34.80
2019-01-06T20:19:42.070Z,35.03
2019-01-06T20:22:47.424Z,34.83
2019-01-06T20:25:55.975Z,35.20
2019-01-06T20:29:01.846Z,34.37
2019-01-06T20:31:55.643Z,34.77
2019-01-06T20:35:08.698Z,35.47
2019-01-06T20:38:14.720Z,35.33
2019-01-06T20:41:20.748Z,34.43
2019-01-06T20:44:26.447Z,33.57
2019-01-06T20:47:31.663Z,33.40
2019-01-06T20:50:34.338Z,34.17
2019-01-06T20:53:40.178Z,33.63
2019-01-06T20:56:45.587Z,34.27
2019-01-06T20:59:53.806Z,33.63
2019-01-06T21:02:55.827Z,33.70
2019-01-06T21:06:01.644Z,33.50
2019-01-06T21:09:07.440Z,32.47
2019-01-06T21:12:13.559Z,33.40
2019-01-06T21:15:19.387Z,33.60
2019-01-06T21:18:28.908Z,33.47
2019-01-06T21:21:36.535Z,34.47
2019-01-06T21:24:42.647Z,33.23
2019-01-06T21:27:48.269Z,33.20
2019-01-06T21:30:54.328Z,33.27
2019-01-06T21:33:48.226Z,33.37
2019-01-06T21:37:01.209Z,33.50
2019-01-06T21:40:07.311Z,33.37
2019-01-06T21:43:13.299Z,33.10
2019-01-06T21:46:19.276Z,33.37
2019-01-06T21:49:25.087Z,32.87
2019-01-06T21:52:31.145Z,32.83
2019-01-06T21:55:37.481Z,32.38
2019-01-06T21:58:43.383Z,32.70
2019-01-06T22:01:49.149Z,32.63
2019-01-06T22:04:54.467Z,33.10
2019-01-06T22:08:00.343Z,33.33
2019-01-06T22:11:05.694Z,32.63
2019-01-06T22:14:11.208Z,32.33
2019-01-06T22:17:17.219Z,32.37
2019-01-06T22:20:23.267Z,32.87
2019-01-06T22:23:29.200Z,32.57
2019-01-06T22:26:34.571Z,32.40
2019-01-06T22:29:40.755Z,33.30
2019-01-06T22:32:46.660Z,32.47
2019-01-06T22:35:52.178Z,32.43
2019-01-06T22:38:58.228Z,31.90
2019-01-06T22:42:04.070Z,32.50
2019-01-06T22:45:16.085Z,32.47
2019-01-06T22:48:21.495Z,33.33
2019-01-06T22:51:32.894Z,34.17
2019-01-06T22:54:38.812Z,34.07
2019-01-06T22:57:44.519Z,35.70
2019-01-06T23:00:50.124Z,36.33
2019-01-06T23:03:56.139Z,35.63
2019-01-06T23:07:08.075Z,35.40
2019-01-06T23:10:13.475Z,34.37
2019-01-06T23:13:19.538Z,35.03
2019-01-06T23:16:25.004Z,35.97
2019-01-06T23:19:31.061Z,35.73
2019-01-06T23:22:42.454Z,35.37
2019-01-06T23:25:48.594Z,34.83
2019-01-06T23:28:48.826Z,34.97
2019-01-06T23:31:49.511Z,36.43
2019-01-06T23:34:55.439Z,35.97
2019-01-06T23:38:01.227Z,35.57
2019-01-06T23:41:09.779Z,36.00
2019-01-06T23:44:15.903Z,35.40
2019-01-06T23:47:21.854Z,37.23
2019-01-06T23:50:27.952Z,37.33
2019-01-06T23:53:33.891Z,37.77
2019-01-06T23:56:39.628Z,38.97
2019-01-06T23:59:45.467Z,38.30
